Time;durP1;ratioP1;P1;durP2;ratioP2;P2;SDS_P1;SDS_P2;PMS_P1;PMS_P2;Temp;Humidity;BMP_temperature;BMP_pressure;BME280_temperature;BME280_humidity;BME280_pressure;Samples;Min_cycle;Max_cycle;Signal;HPM_P1;HPM_P2
2022/03/02 00:00:45;;;;;;;11.35;3.70;;;3.10;97.90;;;;;;5043504;28;20021;-66
2022/03/02 00:03:11;;;;;;;7.05;3.03;;;2.90;97.70;;;;;;5042413;28;20112;-66
2022/03/02 00:05:36;;;;;;;10.40;3.42;;;2.80;98.70;;;;;;5049599;28;20498;-66
2022/03/02 00:08:04;;;;;;;15.07;4.22;;;2.70;99.90;;;;;;5045998;28;20040;-66
2022/03/02 00:10:30;;;;;;;8.68;4.03;;;2.80;99.90;;;;;;5046953;28;20060;-66
2022/03/02 00:12:56;;;;;;;8.90;3.53;;;2.90;99.90;;;;;;5046875;28;20052;-66
2022/03/02 00:15:22;;;;;;;17.02;5.32;;;2.90;99.90;;;;;;5041549;28;20108;-66
2022/03/02 00:17:47;;;;;;;13.23;5.30;;;2.90;99.90;;;;;;5044736;28;20037;-67
2022/03/02 00:20:14;;;;;;;15.48;4.82;;;2.90;99.90;;;;;;5039746;28;20029;-66
2022/03/02 00:22:40;;;;;;;11.10;4.68;;;2.80;99.90;;;;;;5043161;28;20041;-67
2022/03/02 00:25:08;;;;;;;11.38;3.78;;;3.10;99.90;;;;;;5045035;28;20416;-67
2022/03/02 00:27:34;;;;;;;11.00;4.85;;;3.00;99.90;;;;;;5043564;28;20013;-67
2022/03/02 00:30:00;;;;;;;13.75;3.35;;;3.10;99.90;;;;;;5041949;28;20114;-67
2022/03/02 00:32:26;;;;;;;10.98;3.58;;;3.20;99.90;;;;;;5047755;28;20068;-67
2022/03/02 00:34:53;;;;;;;9.93;4.15;;;3.20;99.90;;;;;;5055327;28;20056;-67
2022/03/02 00:37:18;;;;;;;10.70;3.85;;;3.30;99.90;;;;;;5036478;28;20112;-68
2022/03/02 00:39:45;;;;;;;11.77;4.15;;;3.30;99.90;;;;;;5036209;28;20034;-67
2022/03/02 00:42:11;;;;;;;10.38;4.18;;;3.30;99.90;;;;;;5038029;28;20021;-67
2022/03/02 00:44:36;;;;;;;10.60;3.05;;;3.20;99.90;;;;;;5042004;28;20100;-67
2022/03/02 00:47:03;;;;;;;6.38;2.85;;;3.10;99.90;;;;;;5046767;28;20025;-67
2022/03/02 00:49:31;;;;;;;8.85;3.63;;;3.00;99.90;;;;;;5044475;28;20064;-67
2022/03/02 00:51:57;;;;;;;17.30;5.05;;;3.00;99.90;;;;;;5038810;28;20061;-66
2022/03/02 00:54:23;;;;;;;8.15;3.05;;;2.90;99.90;;;;;;5043432;28;20020;-66
2022/03/02 00:56:49;;;;;;;9.73;3.85;;;2.90;99.90;;;;;;5037540;28;20401;-67
2022/03/02 00:59:15;;;;;;;10.43;3.92;;;2.80;99.90;;;;;;5051226;28;20141;-68
2022/03/02 01:01:41;;;;;;;6.80;2.85;;;2.80;99.90;;;;;;5045954;28;20035;-66
2022/03/02 01:04:08;;;;;;;9.45;3.20;;;2.80;99.90;;;;;;5040573;28;20021;-67
2022/03/02 01:06:34;;;;;;;10.52;4.15;;;2.70;99.90;;;;;;5050105;28;20087;-67
2022/03/02 01:09:00;;;;;;;10.57;3.67;;;2.80;99.90;;;;;;5044518;28;20033;-67
2022/03/02 01:11:26;;;;;;;11.13;3.58;;;2.80;99.90;;;;;;5046063;28;20108;-67
2022/03/02 01:13:51;;;;;;;7.35;2.85;;;2.70;99.90;;;;;;5036365;28;20635;-67
2022/03/02 01:16:17;;;;;;;5.47;2.40;;;2.70;99.90;;;;;;5038138;28;20028;-67
2022/03/02 01:18:43;;;;;;;13.35;4.72;;;2.60;99.90;;;;;;5037755;28;20030;-67
2022/03/02 01:21:09;;;;;;;9.55;4.45;;;2.60;99.90;;;;;;5046198;28;20021;-67
2022/03/02 01:23:35;;;;;;;8.98;3.72;;;2.60;99.90;;;;;;5040588;28;20388;-67
2022/03/02 01:26:01;;;;;;;7.25;2.92;;;2.60;99.90;;;;;;5044006;28;20017;-67
2022/03/02 01:28:27;;;;;;;7.10;3.10;;;2.70;99.90;;;;;;5047109;28;20029;-67
2022/03/02 01:30:53;;;;;;;8.93;3.08;;;2.70;99.90;;;;;;5040799;28;20036;-67
2022/03/02 01:33:19;;;;;;;10.65;3.22;;;2.70;99.90;;;;;;5040471;28;20025;-67
2022/03/02 01:35:44;;;;;;;10.20;3.15;;;2.70;99.90;;;;;;5035511;28;20028;-67
2022/03/02 01:38:10;;;;;;;9.35;2.85;;;2.70;99.90;;;;;;5045395;28;20036;-67
2022/03/02 01:40:36;;;;;;;11.30;4.13;;;2.80;99.90;;;;;;5057204;28;20083;-67
2022/03/02 01:43:02;;;;;;;10.88;4.38;;;2.70;99.90;;;;;;5035051;28;20032;-67
2022/03/02 01:45:27;;;;;;;10.50;3.13;;;2.60;99.90;;;;;;5040063;28;20053;-67
2022/03/02 01:47:53;;;;;;;6.13;2.95;;;2.60;99.90;;;;;;5037618;28;20085;-67
2022/03/02 01:50:19;;;;;;;7.05;2.65;;;2.60;99.90;;;;;;5054399;28;20036;-67
2022/03/02 01:52:45;;;;;;;9.55;3.67;;;2.50;99.90;;;;;;5037373;28;20068;-67
2022/03/02 01:55:12;;;;;;;11.57;4.13;;;2.40;99.90;;;;;;5041414;28;20468;-67
2022/03/02 01:57:39;;;;;;;8.23;3.38;;;2.20;99.90;;;;;;5039138;28;20024;-67
2022/03/02 02:00:11;;;;;;;14.30;4.45;;;2.20;99.90;;;;;;5037169;28;20036;-67
2022/03/02 02:02:37;;;;;;;6.30;2.55;;;2.10;99.90;;;;;;5045289;28;20024;-67
2022/03/02 02:05:03;;;;;;;8.32;2.85;;;2.00;99.90;;;;;;5038330;28;20071;-67
2022/03/02 02:07:28;;;;;;;10.73;3.22;;;2.00;99.90;;;;;;5047573;28;20023;-67
2022/03/02 02:09:57;;;;;;;8.48;3.05;;;1.80;99.90;;;;;;5045058;28;20076;-67
2022/03/02 02:12:23;;;;;;;7.07;3.30;;;1.70;99.90;;;;;;5038573;28;20039;-67
2022/03/02 02:14:48;;;;;;;6.65;3.13;;;1.70;99.90;;;;;;5038452;28;20139;-67
2022/03/02 02:17:14;;;;;;;5.90;2.60;;;1.70;99.90;;;;;;5037710;28;20096;-67
2022/03/02 02:19:40;;;;;;;10.07;3.50;;;1.80;99.90;;;;;;5042403;28;20033;-67
2022/03/02 02:22:05;;;;;;;6.18;2.80;;;1.90;99.90;;;;;;5038343;28;20565;-67
2022/03/02 02:24:31;;;;;;;9.65;2.78;;;1.90;99.90;;;;;;5042655;28;20021;-67
2022/03/02 02:26:57;;;;;;;9.10;4.03;;;1.70;99.90;;;;;;5043638;28;20025;-67
2022/03/02 02:29:25;;;;;;;8.00;3.70;;;1.80;99.90;;;;;;5043125;28;20055;-67
2022/03/02 02:31:51;;;;;;;7.32;2.90;;;1.90;99.90;;;;;;5039375;28;20136;-67
2022/03/02 02:34:17;;;;;;;4.10;2.17;;;1.90;99.90;;;;;;5043578;28;20059;-66
2022/03/02 02:36:43;;;;;;;8.60;3.17;;;2.00;99.90;;;;;;5041926;28;20051;-67
2022/03/02 02:39:10;;;;;;;8.80;2.78;;;2.10;99.90;;;;;;5045441;28;20028;-67
2022/03/02 02:41:35;;;;;;;7.90;3.08;;;2.00;99.90;;;;;;5034201;28;20041;-67
2022/03/02 02:44:01;;;;;;;7.22;3.33;;;2.00;99.90;;;;;;5043624;28;20481;-67
2022/03/02 02:46:27;;;;;;;11.88;2.92;;;1.80;99.90;;;;;;5047684;28;20024;-66
2022/03/02 02:48:52;;;;;;;9.07;3.22;;;1.70;99.90;;;;;;5044391;28;20024;-67
2022/03/02 02:51:18;;;;;;;6.90;3.08;;;1.60;99.90;;;;;;5044058;28;20063;-67
2022/03/02 02:53:44;;;;;;;7.30;2.33;;;1.70;99.90;;;;;;5038734;28;20393;-67
2022/03/02 02:56:10;;;;;;;4.85;2.50;;;2.00;99.90;;;;;;5041757;28;20402;-66
2022/03/02 02:58:36;;;;;;;5.68;2.35;;;2.00;99.90;;;;;;5044937;28;20032;-67
2022/03/02 03:01:02;;;;;;;8.85;3.28;;;3.30;99.90;;;;;;5040103;28;20045;-67
2022/03/02 03:03:28;;;;;;;6.68;2.83;;;2.00;99.90;;;;;;5037199;28;20146;-67
2022/03/02 03:05:54;;;;;;;8.35;3.13;;;1.90;99.90;;;;;;5047230;28;20537;-67
2022/03/02 03:08:20;;;;;;;7.07;3.00;;;1.80;99.90;;;;;;5040135;28;20104;-67
2022/03/02 03:10:47;;;;;;;6.95;3.05;;;1.70;99.90;;;;;;5047949;28;20091;-67
2022/03/02 03:13:13;;;;;;;5.53;2.88;;;1.60;99.90;;;;;;5039602;28;20036;-67
2022/03/02 03:15:39;;;;;;;7.97;3.13;;;1.60;99.90;;;;;;5037486;28;20029;-67
2022/03/02 03:18:06;;;;;;;6.68;2.72;;;1.60;99.90;;;;;;5040232;28;20052;-67
2022/03/02 03:20:33;;;;;;;5.05;2.45;;;1.60;99.90;;;;;;5038970;28;20682;-67
2022/03/02 03:22:59;;;;;;;5.95;2.83;;;1.40;99.90;;;;;;5040475;28;20053;-67
2022/03/02 03:25:26;;;;;;;10.27;2.75;;;1.40;99.90;;;;;;5040327;28;20053;-67
2022/03/02 03:27:53;;;;;;;6.45;2.55;;;1.40;99.90;;;;;;5040429;28;20029;-67
2022/03/02 03:30:20;;;;;;;8.18;3.10;;;1.30;99.90;;;;;;5050045;28;20060;-67
2022/03/02 03:32:47;;;;;;;10.85;3.58;;;1.30;99.90;;;;;;5043397;28;20030;-67
2022/03/02 03:35:15;;;;;;;9.15;2.72;;;1.40;99.90;;;;;;5044375;28;20096;-67
2022/03/02 03:37:42;;;;;;;8.38;2.78;;;1.40;99.90;;;;;;5047849;28;20025;-67
2022/03/02 03:40:09;;;;;;;9.98;3.55;;;1.50;99.90;;;;;;5048449;28;20418;-66
2022/03/02 03:42:35;;;;;;;7.53;2.88;;;1.60;99.90;;;;;;5042858;28;20060;-67
2022/03/02 03:45:01;;;;;;;7.03;3.40;;;1.50;99.90;;;;;;5047741;28;20507;-67
2022/03/02 03:47:27;;;;;;;7.47;2.90;;;1.50;99.90;;;;;;5040691;28;20025;-67
2022/03/02 03:49:52;;;;;;;7.05;2.38;;;1.40;99.90;;;;;;5041820;28;20032;-67
2022/03/02 03:52:18;;;;;;;7.88;3.30;;;1.50;99.90;;;;;;5045908;28;20025;-67
2022/03/02 03:54:44;;;;;;;7.93;3.55;;;1.40;99.90;;;;;;5040553;28;20025;-67
2022/03/02 03:57:10;;;;;;;6.90;2.50;;;1.40;99.90;;;;;;5043940;28;20111;-67
2022/03/02 03:59:35;;;;;;;6.45;2.45;;;1.40;99.90;;;;;;5044542;28;20033;-66
2022/03/02 04:02:01;;;;;;;13.93;3.67;;;1.30;99.90;;;;;;5041148;28;20107;-67
2022/03/02 04:04:27;;;;;;;10.73;3.22;;;1.30;99.90;;;;;;5049861;28;20783;-67
2022/03/02 04:06:53;;;;;;;10.27;2.72;;;1.30;99.90;;;;;;5042328;28;20025;-67
2022/03/02 04:09:18;;;;;;;11.93;2.80;;;1.30;99.90;;;;;;5050557;28;20029;-66
2022/03/02 04:11:44;;;;;;;10.15;3.30;;;1.20;99.90;;;;;;5041146;28;20106;-66
2022/03/02 04:14:11;;;;;;;7.65;3.20;;;1.20;99.90;;;;;;5049017;28;20032;-67
2022/03/02 04:16:36;;;;;;;5.65;2.47;;;1.20;99.90;;;;;;5039715;28;20032;-66
2022/03/02 04:19:04;;;;;;;6.13;3.08;;;1.10;99.90;;;;;;5042211;28;20029;-67
2022/03/02 04:21:30;;;;;;;7.88;3.15;;;1.10;99.90;;;;;;5048842;28;20028;-67
2022/03/02 04:23:56;;;;;;;10.73;3.35;;;1.00;99.90;;;;;;5039361;28;20029;-66
2022/03/02 04:26:22;;;;;;;7.53;2.53;;;0.90;99.90;;;;;;5052044;28;20856;-66
2022/03/02 04:28:48;;;;;;;8.98;1.75;;;1.00;99.90;;;;;;5044074;28;20412;-67
2022/03/02 04:31:13;;;;;;;5.82;2.85;;;1.00;99.90;;;;;;5040744;28;20116;-67
2022/03/02 04:33:39;;;;;;;6.07;2.67;;;0.90;99.90;;;;;;5045832;28;20584;-67
2022/03/02 04:36:06;;;;;;;7.30;2.30;;;0.70;99.90;;;;;;5042351;28;20037;-67
2022/03/02 04:38:32;;;;;;;6.88;2.67;;;0.60;99.90;;;;;;5041977;28;20132;-67
2022/03/02 04:40:57;;;;;;;7.72;2.95;;;0.50;99.90;;;;;;5040184;28;20064;-67
2022/03/02 04:43:23;;;;;;;9.40;2.47;;;0.50;99.90;;;;;;5044855;28;20489;-66
2022/03/02 04:45:51;;;;;;;23.42;2.97;;;0.40;99.90;;;;;;5037759;28;20044;-67
2022/03/02 04:48:17;;;;;;;10.05;3.22;;;0.40;99.90;;;;;;5034127;28;20482;-66
2022/03/02 04:50:42;;;;;;;6.88;2.13;;;0.30;99.90;;;;;;5045723;28;20029;-66
2022/03/02 04:53:08;;;;;;;4.70;2.17;;;0.30;99.90;;;;;;5036313;28;20037;-66
2022/03/02 04:55:33;;;;;;;6.68;2.50;;;0.20;99.90;;;;;;5035041;28;20040;-66
2022/03/02 04:58:00;;;;;;;6.57;2.10;;;0.20;99.90;;;;;;5039588;28;20040;-66
2022/03/02 05:00:31;;;;;;;4.55;2.25;;;0.20;99.90;;;;;;5038378;28;20025;-66
2022/03/02 05:02:59;;;;;;;12.05;2.58;;;0.20;99.90;;;;;;5040210;28;20477;-66
2022/03/02 05:05:26;;;;;;;12.13;2.90;;;0.20;99.90;;;;;;5042813;28;20031;-66
2022/03/02 05:07:52;;;;;;;7.95;2.97;;;0.10;99.90;;;;;;5039603;28;20227;-66
2022/03/02 05:10:20;;;;;;;8.35;2.58;;;0.00;99.90;;;;;;5036857;28;20584;-66
2022/03/02 05:12:46;;;;;;;7.03;2.65;;;0.00;99.90;;;;;;5038809;28;20036;-67
2022/03/02 05:15:13;;;;;;;3.80;1.65;;;0.00;99.90;;;;;;5040345;28;20030;-66
2022/03/02 05:17:39;;;;;;;5.03;2.17;;;0.00;99.90;;;;;;5040190;28;20398;-66
2022/03/02 05:20:07;;;;;;;6.18;2.25;;;0.00;99.90;;;;;;5042673;28;20498;-66
2022/03/02 05:22:33;;;;;;;6.20;3.00;;;0.10;99.90;;;;;;5040349;28;20025;-66
2022/03/02 05:24:59;;;;;;;5.88;2.33;;;0.00;99.90;;;;;;5045363;28;20025;-67
2022/03/02 05:27:25;;;;;;;7.03;2.58;;;-0.10;99.90;;;;;;5041059;28;20025;-66
2022/03/02 05:29:50;;;;;;;6.38;2.53;;;-0.20;99.90;;;;;;5038359;28;20183;-66
2022/03/02 05:32:16;;;;;;;6.60;2.92;;;-0.20;99.90;;;;;;5040389;28;20096;-66
2022/03/02 05:34:42;;;;;;;9.70;3.90;;;-0.30;99.90;;;;;;5046137;28;20481;-67
2022/03/02 05:37:09;;;;;;;13.95;4.40;;;-0.20;99.90;;;;;;5050541;28;20025;-66
2022/03/02 05:39:35;;;;;;;11.45;4.10;;;-0.20;99.90;;;;;;5037558;28;20512;-66
2022/03/02 05:42:00;;;;;;;8.50;3.50;;;-0.30;99.90;;;;;;5032397;28;20025;-67
2022/03/02 05:44:26;;;;;;;11.15;3.95;;;-0.40;99.90;;;;;;5044502;28;20711;-67
2022/03/02 05:46:52;;;;;;;8.45;3.03;;;-0.40;99.90;;;;;;5045067;28;20028;-68
2022/03/02 05:49:17;;;;;;;7.30;4.15;;;-0.50;99.90;;;;;;5036847;28;20179;-66
2022/03/02 05:51:43;;;;;;;9.90;2.00;;;-0.50;99.90;;;;;;5036279;28;20050;-66
2022/03/02 05:54:10;;;;;;;3.60;1.52;;;-0.60;99.90;;;;;;5044091;28;20028;-67
2022/03/02 05:56:37;;;;;;;4.78;2.65;;;-0.60;99.90;;;;;;5039199;28;20088;-67
2022/03/02 05:59:07;;;;;;;4.65;2.15;;;-0.60;99.90;;;;;;5048319;28;20445;-66
2022/03/02 06:01:34;;;;;;;4.88;2.00;;;-0.60;99.90;;;;;;5042018;28;20024;-66
2022/03/02 06:04:01;;;;;;;6.10;2.40;;;-0.30;99.90;;;;;;5045689;28;20400;-66
2022/03/02 06:06:29;;;;;;;6.13;2.45;;;0.10;99.90;;;;;;5047327;28;20385;-66
2022/03/02 06:08:55;;;;;;;7.75;3.47;;;0.10;99.90;;;;;;5043568;28;20020;-66
2022/03/02 06:11:21;;;;;;;6.22;1.90;;;0.00;99.90;;;;;;5043656;28;20041;-66
2022/03/02 06:13:47;;;;;;;8.52;3.20;;;0.00;99.90;;;;;;5039772;28;20514;-66
2022/03/02 06:16:13;;;;;;;9.82;2.95;;;0.10;99.90;;;;;;5035495;28;20048;-66
2022/03/02 06:18:39;;;;;;;4.28;2.13;;;0.20;99.90;;;;;;5058693;28;20033;-66
2022/03/02 06:21:06;;;;;;;7.35;3.10;;;0.50;99.90;;;;;;5037410;28;20536;-66
2022/03/02 06:23:32;;;;;;;18.65;3.13;;;0.80;99.90;;;;;;5041182;28;20094;-66
2022/03/02 06:25:59;;;;;;;4.97;2.05;;;1.00;99.90;;;;;;5037183;28;20772;-66
2022/03/02 06:28:26;;;;;;;8.77;3.65;;;1.10;99.90;;;;;;5037155;28;20764;-66
2022/03/02 06:30:52;;;;;;;9.68;2.58;;;1.30;99.90;;;;;;5048247;28;20191;-66
2022/03/02 06:33:20;;;;;;;7.88;2.97;;;1.30;99.90;;;;;;5036232;28;20029;-66
2022/03/02 06:35:47;;;;;;;5.32;2.10;;;1.40;99.90;;;;;;5044768;28;20021;-67
2022/03/02 06:38:12;;;;;;;11.52;3.38;;;1.40;99.90;;;;;;5040811;28;20033;-66
2022/03/02 06:40:40;;;;;;;7.40;3.38;;;1.50;99.90;;;;;;5033933;28;20802;-66
2022/03/02 06:43:11;;;;;;;6.70;2.28;;;1.40;99.90;;;;;;5035099;28;20025;-66
2022/03/02 06:45:57;;;;;;;7.80;3.80;;;1.50;99.90;;;;;;5037700;28;20017;-66
2022/03/02 06:48:28;;;;;;;7.80;3.63;;;1.50;99.90;;;;;;5039489;28;20018;-67
2022/03/02 06:50:59;;;;;;;8.70;2.88;;;1.60;99.90;;;;;;5058236;28;20024;-66
2022/03/02 06:53:31;;;;;;;9.75;2.50;;;1.70;99.90;;;;;;5038214;28;20087;-66
2022/03/02 06:56:00;;;;;;;9.80;3.97;;;1.90;99.90;;;;;;5043742;28;20032;-67
2022/03/02 06:58:34;;;;;;;10.68;3.65;;;2.00;99.90;;;;;;5040513;28;20108;-67
2022/03/02 07:01:01;;;;;;;8.57;3.83;;;2.20;99.90;;;;;;5035920;28;20056;-66
2022/03/02 07:03:34;;;;;;;10.32;4.22;;;2.40;99.90;;;;;;5040295;28;20417;-67
2022/03/02 07:06:00;;;;;;;7.75;3.83;;;2.50;99.90;;;;;;5040808;28;20049;-66
2022/03/02 07:08:28;;;;;;;9.50;3.50;;;2.60;99.90;;;;;;5041900;28;20079;-67
2022/03/02 07:10:54;;;;;;;5.90;2.45;;;2.70;99.90;;;;;;5045345;28;20540;-67
2022/03/02 07:13:21;;;;;;;7.30;3.15;;;2.80;99.90;;;;;;5040590;28;20491;-67
2022/03/02 07:15:47;;;;;;;10.23;2.78;;;3.00;99.90;;;;;;5032327;28;20044;-67
2022/03/02 07:18:15;;;;;;;7.10;3.10;;;3.20;99.90;;;;;;5034679;28;20053;-67
2022/03/02 07:20:41;;;;;;;10.10;4.18;;;3.30;99.90;;;;;;5035988;28;20112;-67
2022/03/02 07:23:12;;;;;;;13.18;4.07;;;3.40;99.90;;;;;;5038277;28;20124;-67
2022/03/02 07:25:41;;;;;;;6.50;3.53;;;3.50;99.90;;;;;;5042437;28;20593;-67
2022/03/02 07:28:12;;;;;;;8.03;3.17;;;3.50;99.90;;;;;;5033365;28;20021;-67
2022/03/02 07:30:39;;;;;;;7.72;3.28;;;3.60;99.90;;;;;;5045762;28;20067;-67
2022/03/02 07:33:05;;;;;;;6.50;3.45;;;3.60;99.90;;;;;;5035108;28;20036;-67
2022/03/02 07:35:37;;;;;;;10.05;4.20;;;3.50;99.90;;;;;;5041680;28;20503;-67
2022/03/02 07:38:05;;;;;;;22.30;4.05;;;3.50;99.90;;;;;;5040545;28;20025;-67
2022/03/02 07:40:30;;;;;;;9.18;3.60;;;3.50;99.90;;;;;;5044323;28;20041;-67
2022/03/02 07:42:56;;;;;;;8.25;3.10;;;3.50;99.90;;;;;;5034708;28;20032;-67
2022/03/02 07:45:22;;;;;;;7.63;3.33;;;3.60;99.90;;;;;;5040914;28;20508;-67
2022/03/02 07:47:48;;;;;;;16.45;4.32;;;3.80;99.90;;;;;;5047404;28;20037;-67
2022/03/02 07:50:14;;;;;;;14.25;4.15;;;3.70;99.90;;;;;;5043964;28;20478;-66
2022/03/02 07:52:51;;;;;;;7.13;2.90;;;3.80;99.90;;;;;;5045514;28;20488;-66
2022/03/02 07:55:17;;;;;;;8.02;3.03;;;4.00;99.90;;;;;;5041937;28;20036;-68
2022/03/02 07:57:44;;;;;;;11.35;3.42;;;4.10;99.90;;;;;;5047236;28;20104;-67
2022/03/02 08:00:11;;;;;;;12.63;4.28;;;4.20;99.90;;;;;;5043120;28;20048;-67
2022/03/02 08:02:40;;;;;;;10.93;3.60;;;4.30;99.90;;;;;;5050851;28;20024;-67
2022/03/02 08:05:06;;;;;;;11.98;4.15;;;4.30;99.90;;;;;;5044243;28;20029;-67
2022/03/02 08:07:34;;;;;;;9.95;3.92;;;4.40;99.90;;;;;;5052101;28;20043;-67
2022/03/02 08:10:00;;;;;;;10.05;3.85;;;4.40;99.90;;;;;;5042617;28;20112;-67
2022/03/02 08:12:27;;;;;;;8.27;3.80;;;4.50;99.90;;;;;;5045251;28;20115;-67
2022/03/02 08:14:52;;;;;;;7.80;3.00;;;4.60;99.90;;;;;;5049588;28;20033;-67
2022/03/02 08:17:19;;;;;;;12.80;4.72;;;4.70;99.90;;;;;;5055687;28;20082;-67
2022/03/02 08:19:46;;;;;;;8.43;3.22;;;4.70;99.90;;;;;;5044679;28;20048;-67
2022/03/02 08:22:20;;;;;;;11.85;3.40;;;4.80;99.90;;;;;;5048369;28;20163;-67
2022/03/02 08:24:53;;;;;;;10.52;3.20;;;5.00;99.90;;;;;;5046495;28;20018;-67
2022/03/02 08:27:19;;;;;;;11.25;3.42;;;5.00;99.90;;;;;;5049740;28;20104;-67
2022/03/02 08:29:53;;;;;;;7.43;3.58;;;5.10;99.90;;;;;;5041830;28;20207;-67
2022/03/02 08:32:20;;;;;;;12.18;3.13;;;5.20;99.90;;;;;;5061750;28;20110;-67
2022/03/02 08:34:47;;;;;;;9.10;3.33;;;5.20;99.90;;;;;;5036664;28;20211;-67
2022/03/02 08:37:14;;;;;;;10.52;3.65;;;5.20;99.90;;;;;;5044476;28;20025;-67
2022/03/02 08:39:40;;;;;;;8.18;3.33;;;5.40;99.90;;;;;;5041983;28;20044;-67
2022/03/02 08:42:06;;;;;;;6.28;3.47;;;5.50;99.90;;;;;;5042390;28;20390;-67
2022/03/02 08:44:32;;;;;;;11.30;3.40;;;5.70;99.90;;;;;;5048522;28;20029;-67
2022/03/02 08:46:58;;;;;;;7.15;2.90;;;6.10;99.90;;;;;;5043390;28;20747;-67
2022/03/02 08:49:24;;;;;;;7.75;2.70;;;6.80;99.40;;;;;;5050104;28;20137;-67
2022/03/02 08:51:50;;;;;;;9.10;3.53;;;7.60;98.50;;;;;;5040650;28;20033;-67
2022/03/02 08:54:18;;;;;;;7.65;2.95;;;8.10;96.60;;;;;;5037913;28;20029;-68
2022/03/02 08:56:45;;;;;;;9.98;3.33;;;8.60;96.00;;;;;;5045611;28;20025;-67
2022/03/02 08:59:14;;;;;;;10.05;3.83;;;9.30;94.70;;;;;;5042558;28;20034;-67
2022/03/02 09:01:45;;;;;;;8.85;3.13;;;10.40;93.20;;;;;;5048742;28;20037;-67
2022/03/02 09:04:16;;;;;;;6.72;2.72;;;10.80;93.20;;;;;;5039081;28;20040;-67
2022/03/02 09:06:43;;;;;;;10.65;3.70;;;11.60;90.90;;;;;;5043605;28;20152;-67
2022/03/02 09:09:09;;;;;;;10.18;3.70;;;11.70;89.70;;;;;;5040299;28;20038;-68
2022/03/02 09:11:34;;;;;;;8.20;3.50;;;12.20;86.60;;;;;;5039971;28;20393;-68
2022/03/02 09:14:01;;;;;;;14.07;4.28;;;12.10;84.10;;;;;;5045024;28;20037;-68
2022/03/02 09:16:27;;;;;;;12.25;3.97;;;13.30;83.70;;;;;;5040370;28;20095;-68
2022/03/02 09:18:53;;;;;;;11.70;3.47;;;11.80;85.90;;;;;;5042627;28;20037;-68
2022/03/02 09:21:20;;;;;;;13.02;4.47;;;12.30;87.90;;;;;;5041172;28;20500;-68
2022/03/02 09:23:47;;;;;;;10.88;3.22;;;11.30;86.60;;;;;;5051069;28;20039;-67
2022/03/02 09:26:15;;;;;;;10.55;3.65;;;11.90;84.60;;;;;;5040345;28;20378;-68
2022/03/02 09:28:44;;;;;;;14.55;4.15;;;11.80;88.30;;;;;;5037247;28;20068;-68
2022/03/02 09:31:13;;;;;;;12.43;5.00;;;12.40;84.80;;;;;;5034408;28;20072;-68
2022/03/02 09:33:40;;;;;;;12.10;3.57;;;11.40;82.70;;;;;;5043181;28;20029;-68
2022/03/02 09:36:10;;;;;;;9.85;3.30;;;11.50;87.80;;;;;;5042734;28;20044;-68
2022/03/02 09:38:39;;;;;;;11.07;3.38;;;12.70;84.70;;;;;;5045624;28;20135;-68
2022/03/02 09:41:13;;;;;;;14.43;4.22;;;13.60;81.80;;;;;;5043004;28;20451;-68
2022/03/02 09:43:42;;;;;;;11.00;3.85;;;14.50;81.00;;;;;;5037761;28;20516;-68
2022/03/02 09:46:12;;;;;;;10.38;4.18;;;13.10;80.60;;;;;;5044802;28;20476;-67
2022/03/02 09:48:48;;;;;;;12.25;4.10;;;13.40;77.20;;;;;;5040048;28;20052;-67
2022/03/02 09:51:23;;;;;;;13.35;4.00;;;12.30;83.10;;;;;;5036796;28;20033;-67
2022/03/02 09:53:52;;;;;;;9.13;3.20;;;13.90;79.60;;;;;;5041127;28;20060;-67
2022/03/02 09:56:22;;;;;;;13.00;3.53;;;13.30;78.10;;;;;;5036235;28;20180;-67
2022/03/02 09:58:50;;;;;;;11.93;3.78;;;11.90;82.30;;;;;;5042059;28;20123;-67
2022/03/02 10:01:23;;;;;;;10.80;3.92;;;13.50;81.10;;;;;;5040533;28;20163;-68
2022/03/02 10:03:50;;;;;;;14.02;3.95;;;13.70;77.90;;;;;;5035934;28;20104;-68
2022/03/02 10:06:21;;;;;;;12.50;3.97;;;14.00;78.00;;;;;;5042422;28;20021;-68
2022/03/02 10:08:51;;;;;;;11.18;3.58;;;14.10;75.20;;;;;;5035862;28;20694;-68
2022/03/02 10:11:23;;;;;;;11.43;3.70;;;14.10;77.20;;;;;;5036585;28;20025;-68
2022/03/02 10:13:50;;;;;;;12.05;3.90;;;15.50;74.80;;;;;;5036913;28;20041;-68
2022/03/02 10:16:28;;;;;;;11.38;3.83;;;16.60;73.90;;;;;;5047354;28;20033;-68
2022/03/02 10:19:02;;;;;;;11.70;4.00;;;15.00;71.10;;;;;;5039012;28;20509;-68
2022/03/02 10:21:31;;;;;;;10.35;3.50;;;13.40;74.60;;;;;;5039649;28;20017;-68
2022/03/02 10:24:02;;;;;;;11.20;3.43;;;14.50;70.90;;;;;;5037700;28;20585;-68
2022/03/02 10:26:34;;;;;;;11.90;3.38;;;14.70;73.40;;;;;;5041598;28;20029;-68
2022/03/02 10:29:11;;;;;;;9.02;3.25;;;15.20;70.10;;;;;;5040228;28;20708;-68
2022/03/02 10:32:05;;;;;;;8.73;3.40;;;14.60;68.10;;;;;;5037957;28;20032;-68
2022/03/02 10:34:36;;;;;;;11.75;3.55;;;12.50;70.80;;;;;;5034378;28;20029;-68
2022/03/02 10:37:24;;;;;;;12.35;3.03;;;13.50;72.60;;;;;;5045067;28;20025;-68
2022/03/02 10:39:55;;;;;;;9.55;3.33;;;15.30;71.20;;;;;;5039576;28;20057;-68
2022/03/02 10:42:28;;;;;;;8.93;2.92;;;14.90;70.30;;;;;;5028969;28;20033;-68
2022/03/02 10:45:03;;;;;;;9.52;3.10;;;16.00;68.60;;;;;;5037413;28;20370;-68
2022/03/02 10:47:30;;;;;;;8.05;2.85;;;16.90;66.00;;;;;;5036161;28;20031;-69
2022/03/02 10:49:59;;;;;;;9.63;3.38;;;17.10;63.70;;;;;;5040555;28;20520;-68
2022/03/02 10:52:26;;;;;;;9.73;3.27;;;16.20;62.60;;;;;;5036611;28;20136;-68
2022/03/02 10:54:55;;;;;;;8.75;2.53;;;16.90;61.90;;;;;;5041303;28;20096;-68
2022/03/02 10:57:24;;;;;;;10.00;3.17;;;16.50;64.30;;;;;;5035058;28;20021;-68
2022/03/02 10:59:54;;;;;;;11.18;3.40;;;16.60;61.80;;;;;;5045573;28;20048;-68
2022/03/02 11:02:23;;;;;;;10.05;3.22;;;15.70;61.40;;;;;;5035548;28;20045;-68
2022/03/02 11:04:53;;;;;;;8.73;2.90;;;15.70;63.40;;;;;;5036417;28;20042;-68
2022/03/02 11:07:19;;;;;;;;;;;16.20;61.30;;;;;;5039927;28;20059;-69
2022/03/02 11:09:49;;;;;;;10.90;3.40;;;17.20;59.40;;;;;;5033570;28;19913;-68
2022/03/02 11:12:20;;;;;;;14.38;4.38;;;18.20;56.80;;;;;;5026029;28;20021;-68
2022/03/02 11:15:03;;;;;;;11.90;3.80;;;15.50;61.20;;;;;;5034883;28;20065;-68
2022/03/02 11:17:30;;;;;;;10.40;3.42;;;16.80;63.00;;;;;;5041047;28;20120;-68
2022/03/02 11:19:57;;;;;;;9.77;3.13;;;15.60;61.70;;;;;;5047449;28;20056;-68
2022/03/02 11:22:26;;;;;;;9.70;3.40;;;16.60;60.20;;;;;;5041637;28;20020;-68
2022/03/02 11:24:57;;;;;;;9.85;3.65;;;17.10;57.20;;;;;;5038267;28;20036;-68
2022/03/02 11:27:30;;;;;;;9.70;3.80;;;16.00;61.70;;;;;;5048448;28;20394;-68
2022/03/02 11:30:13;;;;;;;12.70;4.22;;;15.90;60.90;;;;;;5047109;28;20409;-68
2022/03/02 11:32:44;;;;;;;10.50;3.45;;;14.70;60.90;;;;;;5053971;28;20040;-68
2022/03/02 11:35:14;;;;;;;13.05;3.75;;;15.40;64.80;;;;;;5046606;28;20033;-69
2022/03/02 11:37:42;;;;;;;14.65;4.65;;;14.90;62.40;;;;;;5044069;28;20568;-68
2022/03/02 11:40:11;;;;;;;9.80;3.53;;;14.10;62.50;;;;;;5045119;28;20128;-68
2022/03/02 11:42:40;;;;;;;10.95;3.58;;;15.10;63.40;;;;;;5038139;28;20104;-68
2022/03/02 11:45:09;;;;;;;10.85;4.07;;;15.30;61.80;;;;;;5048325;28;20059;-68
2022/03/02 11:47:37;;;;;;;13.50;3.42;;;14.20;61.60;;;;;;5045680;28;20556;-68
2022/03/02 11:50:09;;;;;;;12.75;4.03;;;13.80;62.30;;;;;;5040768;28;20029;-68
2022/03/02 11:52:37;;;;;;;13.57;4.22;;;15.20;61.80;;;;;;5045508;28;20047;-68
2022/03/02 11:55:08;;;;;;;11.27;4.05;;;14.60;63.20;;;;;;5037228;28;20541;-68
2022/03/02 11:57:53;;;;;;;13.88;4.20;;;14.40;63.50;;;;;;5040026;28;20074;-68
2022/03/02 12:00:27;;;;;;;11.75;3.63;;;15.20;62.10;;;;;;5044050;28;20409;-68
2022/03/02 12:02:58;;;;;;;12.05;4.13;;;15.90;64.90;;;;;;5042564;28;20025;-68
2022/03/02 12:05:31;;;;;;;9.15;3.10;;;14.80;61.30;;;;;;5036356;28;20038;-68
2022/03/02 12:08:01;;;;;;;8.93;3.45;;;13.90;61.60;;;;;;5038527;28;20033;-68
2022/03/02 12:10:29;;;;;;;7.68;3.03;;;15.30;64.80;;;;;;5038591;28;20082;-68
2022/03/02 12:12:57;;;;;;;10.90;3.47;;;17.60;64.60;;;;;;5034315;28;20029;-68
2022/03/02 12:15:25;;;;;;;15.13;4.07;;;18.90;61.00;;;;;;5042116;28;20029;-69
2022/03/02 12:17:53;;;;;;;11.13;4.22;;;19.30;57.40;;;;;;5047869;28;20074;-68
2022/03/02 12:20:24;;;;;;;12.40;4.28;;;18.40;56.20;;;;;;5055964;28;20183;-68
2022/03/02 12:22:51;;;;;;;9.30;3.55;;;17.90;57.10;;;;;;5043045;28;20029;-68
2022/03/02 12:25:20;;;;;;;13.18;3.70;;;17.30;59.50;;;;;;5040766;28;20029;-68
2022/03/02 12:28:15;;;;;;;11.55;3.88;;;17.10;60.20;;;;;;5047544;28;20017;-68
2022/03/02 12:30:41;;;;;;;12.68;4.18;;;16.10;59.50;;;;;;5042379;28;20040;-68
2022/03/02 12:33:08;;;;;;;14.02;4.65;;;14.70;61.90;;;;;;5044104;28;20078;-69
2022/03/02 12:35:34;;;;;;;13.10;3.95;;;14.80;62.20;;;;;;5044189;28;20130;-68
2022/03/02 12:38:03;;;;;;;12.48;4.32;;;15.20;64.80;;;;;;5037744;28;20045;-68
2022/03/02 12:40:31;;;;;;;14.15;4.57;;;15.30;61.10;;;;;;5027322;28;20098;-68
2022/03/02 12:42:58;;;;;;;12.05;4.03;;;14.70;61.60;;;;;;5033418;28;20115;-68
2022/03/02 12:45:24;;;;;;;12.43;4.47;;;14.50;65.70;;;;;;5030202;28;20206;-68
2022/03/02 12:47:51;;;;;;;11.70;4.50;;;15.60;61.30;;;;;;5035929;28;20154;-68
2022/03/02 12:50:17;;;;;;;13.57;4.90;;;15.70;61.80;;;;;;5037742;28;20473;-68
2022/03/02 12:52:46;;;;;;;11.73;4.68;;;16.40;63.40;;;;;;5031539;28;20218;-68